sensor_id;sensor_type;location;lat;lon;timestamp;P1;durP1;ratioP1;P2;durP2;ratioP2
11064;SDS011;5585;52.530;7.320;2023-08-08T00:01:20;2.78;;;1.83;;
11064;SDS011;5585;52.530;7.320;2023-08-08T00:03:47;2.30;;;2.00;;
11064;SDS011;5585;52.530;7.320;2023-08-08T00:06:13;2.97;;;2.05;;
11064;SDS011;5585;52.530;7.320;2023-08-08T00:08:40;4.55;;;2.28;;
11064;SDS011;5585;52.530;7.320;2023-08-08T00:11:06;3.30;;;2.00;;
11064;SDS011;5585;52.530;7.320;2023-08-08T00:13:34;2.85;;;1.98;;
11064;SDS011;5585;52.530;7.320;2023-08-08T00:16:01;2.55;;;2.13;;
11064;SDS011;5585;52.530;7.320;2023-08-08T00:18:28;2.08;;;1.80;;
11064;SDS011;5585;52.530;7.320;2023-08-08T00:20:55;2.63;;;1.92;;
11064;SDS011;5585;52.530;7.320;2023-08-08T00:23:21;3.15;;;2.10;;
11064;SDS011;5585;52.530;7.320;2023-08-08T00:25:48;2.45;;;2.10;;
11064;SDS011;5585;52.530;7.320;2023-08-08T00:28:16;2.65;;;2.08;;
11064;SDS011;5585;52.530;7.320;2023-08-08T00:30:44;2.33;;;2.10;;
11064;SDS011;5585;52.530;7.320;2023-08-08T00:33:10;3.63;;;2.20;;
11064;SDS011;5585;52.530;7.320;2023-08-08T00:35:37;3.20;;;2.15;;
11064;SDS011;5585;52.530;7.320;2023-08-08T00:38:03;2.50;;;2.20;;
11064;SDS011;5585;52.530;7.320;2023-08-08T00:40:30;3.42;;;2.42;;
11064;SDS011;5585;52.530;7.320;2023-08-08T00:42:56;2.17;;;1.98;;
11064;SDS011;5585;52.530;7.320;2023-08-08T00:45:23;2.85;;;2.13;;
11064;SDS011;5585;52.530;7.320;2023-08-08T00:47:51;3.30;;;2.00;;
11064;SDS011;5585;52.530;7.320;2023-08-08T00:50:17;3.60;;;2.20;;
11064;SDS011;5585;52.530;7.320;2023-08-08T00:52:44;2.58;;;2.10;;
11064;SDS011;5585;52.530;7.320;2023-08-08T00:55:11;2.65;;;2.13;;
11064;SDS011;5585;52.530;7.320;2023-08-08T00:57:39;6.40;;;2.13;;
11064;SDS011;5585;52.530;7.320;2023-08-08T01:00:06;3.70;;;2.10;;
11064;SDS011;5585;52.530;7.320;2023-08-08T01:02:34;4.03;;;2.60;;
11064;SDS011;5585;52.530;7.320;2023-08-08T01:05:02;2.83;;;2.17;;
11064;SDS011;5585;52.530;7.320;2023-08-08T01:07:30;2.60;;;2.20;;
11064;SDS011;5585;52.530;7.320;2023-08-08T01:09:57;3.97;;;2.13;;
11064;SDS011;5585;52.530;7.320;2023-08-08T01:12:29;3.72;;;2.15;;
11064;SDS011;5585;52.530;7.320;2023-08-08T01:14:56;2.42;;;2.08;;
11064;SDS011;5585;52.530;7.320;2023-08-08T01:17:23;3.03;;;2.30;;
11064;SDS011;5585;52.530;7.320;2023-08-08T01:19:51;2.95;;;2.38;;
11064;SDS011;5585;52.530;7.320;2023-08-08T01:22:22;3.88;;;2.58;;
11064;SDS011;5585;52.530;7.320;2023-08-08T01:24:51;3.90;;;2.25;;
11064;SDS011;5585;52.530;7.320;2023-08-08T01:27:18;5.05;;;2.15;;
11064;SDS011;5585;52.530;7.320;2023-08-08T01:29:44;3.65;;;2.45;;
11064;SDS011;5585;52.530;7.320;2023-08-08T01:32:12;4.25;;;2.50;;
11064;SDS011;5585;52.530;7.320;2023-08-08T01:34:38;3.28;;;2.15;;
11064;SDS011;5585;52.530;7.320;2023-08-08T01:37:06;3.17;;;2.42;;
11064;SDS011;5585;52.530;7.320;2023-08-08T01:39:35;4.25;;;2.60;;
11064;SDS011;5585;52.530;7.320;2023-08-08T01:42:06;4.70;;;2.40;;
11064;SDS011;5585;52.530;7.320;2023-08-08T01:44:32;3.55;;;2.60;;
11064;SDS011;5585;52.530;7.320;2023-08-08T01:47:00;5.80;;;3.20;;
11064;SDS011;5585;52.530;7.320;2023-08-08T01:49:26;2.92;;;2.55;;
11064;SDS011;5585;52.530;7.320;2023-08-08T01:51:53;4.28;;;2.60;;
11064;SDS011;5585;52.530;7.320;2023-08-08T01:54:19;3.78;;;2.53;;
11064;SDS011;5585;52.530;7.320;2023-08-08T01:56:46;5.68;;;3.08;;
11064;SDS011;5585;52.530;7.320;2023-08-08T01:59:13;3.63;;;2.60;;
11064;SDS011;5585;52.530;7.320;2023-08-08T02:01:40;4.72;;;3.03;;
11064;SDS011;5585;52.530;7.320;2023-08-08T02:04:06;5.32;;;3.40;;
11064;SDS011;5585;52.530;7.320;2023-08-08T02:06:33;4.88;;;2.95;;
11064;SDS011;5585;52.530;7.320;2023-08-08T02:08:59;4.90;;;3.25;;
11064;SDS011;5585;52.530;7.320;2023-08-08T02:11:26;3.25;;;2.60;;
11064;SDS011;5585;52.530;7.320;2023-08-08T02:13:52;4.57;;;2.85;;
11064;SDS011;5585;52.530;7.320;2023-08-08T02:16:20;4.70;;;3.45;;
11064;SDS011;5585;52.530;7.320;2023-08-08T02:18:47;4.53;;;3.30;;
11064;SDS011;5585;52.530;7.320;2023-08-08T02:21:13;5.13;;;2.92;;
11064;SDS011;5585;52.530;7.320;2023-08-08T02:23:40;3.85;;;2.90;;
11064;SDS011;5585;52.530;7.320;2023-08-08T02:26:06;5.72;;;3.33;;
11064;SDS011;5585;52.530;7.320;2023-08-08T02:28:33;6.40;;;3.38;;
11064;SDS011;5585;52.530;7.320;2023-08-08T02:30:59;4.95;;;3.17;;
11064;SDS011;5585;52.530;7.320;2023-08-08T02:33:27;5.38;;;3.30;;
11064;SDS011;5585;52.530;7.320;2023-08-08T02:35:54;7.20;;;3.42;;
11064;SDS011;5585;52.530;7.320;2023-08-08T02:38:20;5.07;;;3.75;;
11064;SDS011;5585;52.530;7.320;2023-08-08T02:40:47;6.28;;;3.72;;
11064;SDS011;5585;52.530;7.320;2023-08-08T02:43:13;5.93;;;3.55;;
11064;SDS011;5585;52.530;7.320;2023-08-08T02:45:40;5.78;;;3.35;;
11064;SDS011;5585;52.530;7.320;2023-08-08T02:48:07;6.60;;;3.88;;
11064;SDS011;5585;52.530;7.320;2023-08-08T02:50:35;6.20;;;4.00;;
11064;SDS011;5585;52.530;7.320;2023-08-08T02:53:02;4.85;;;3.40;;
11064;SDS011;5585;52.530;7.320;2023-08-08T02:55:28;3.60;;;3.22;;
11064;SDS011;5585;52.530;7.320;2023-08-08T02:57:55;3.67;;;2.90;;
11064;SDS011;5585;52.530;7.320;2023-08-08T03:00:21;4.05;;;3.38;;
11064;SDS011;5585;52.530;7.320;2023-08-08T03:02:48;5.55;;;3.42;;
11064;SDS011;5585;52.530;7.320;2023-08-08T03:05:14;5.28;;;3.42;;
11064;SDS011;5585;52.530;7.320;2023-08-08T03:07:42;4.78;;;2.75;;
11064;SDS011;5585;52.530;7.320;2023-08-08T03:10:09;5.97;;;3.35;;
11064;SDS011;5585;52.530;7.320;2023-08-08T03:12:35;4.47;;;3.17;;
11064;SDS011;5585;52.530;7.320;2023-08-08T03:15:10;4.03;;;3.22;;
11064;SDS011;5585;52.530;7.320;2023-08-08T03:17:37;5.20;;;3.67;;
11064;SDS011;5585;52.530;7.320;2023-08-08T03:20:04;5.80;;;3.10;;
11064;SDS011;5585;52.530;7.320;2023-08-08T03:22:31;5.45;;;3.10;;
11064;SDS011;5585;52.530;7.320;2023-08-08T03:24:59;5.03;;;3.28;;
11064;SDS011;5585;52.530;7.320;2023-08-08T03:27:30;5.70;;;3.25;;
11064;SDS011;5585;52.530;7.320;2023-08-08T03:29:57;4.75;;;3.17;;
11064;SDS011;5585;52.530;7.320;2023-08-08T03:32:23;4.20;;;2.88;;
11064;SDS011;5585;52.530;7.320;2023-08-08T03:34:50;4.90;;;3.50;;
11064;SDS011;5585;52.530;7.320;2023-08-08T03:37:16;5.15;;;2.85;;
11064;SDS011;5585;52.530;7.320;2023-08-08T03:39:43;7.50;;;3.50;;
11064;SDS011;5585;52.530;7.320;2023-08-08T03:42:11;5.65;;;3.22;;
11064;SDS011;5585;52.530;7.320;2023-08-08T03:44:37;3.15;;;2.65;;
11064;SDS011;5585;52.530;7.320;2023-08-08T03:47:04;4.95;;;3.15;;
11064;SDS011;5585;52.530;7.320;2023-08-08T03:49:30;3.70;;;2.78;;
11064;SDS011;5585;52.530;7.320;2023-08-08T03:51:57;5.60;;;3.53;;
11064;SDS011;5585;52.530;7.320;2023-08-08T03:54:23;5.22;;;3.13;;
11064;SDS011;5585;52.530;7.320;2023-08-08T03:56:50;3.42;;;3.05;;
11064;SDS011;5585;52.530;7.320;2023-08-08T03:59:18;4.65;;;2.90;;
11064;SDS011;5585;52.530;7.320;2023-08-08T04:01:44;5.82;;;2.80;;
11064;SDS011;5585;52.530;7.320;2023-08-08T04:04:11;6.22;;;3.33;;
11064;SDS011;5585;52.530;7.320;2023-08-08T04:06:37;6.28;;;3.85;;
11064;SDS011;5585;52.530;7.320;2023-08-08T04:09:04;4.47;;;3.28;;
11064;SDS011;5585;52.530;7.320;2023-08-08T04:11:31;4.55;;;3.20;;
11064;SDS011;5585;52.530;7.320;2023-08-08T04:14:00;4.28;;;3.08;;
11064;SDS011;5585;52.530;7.320;2023-08-08T04:16:28;6.60;;;3.42;;
11064;SDS011;5585;52.530;7.320;2023-08-08T04:18:55;5.32;;;3.15;;
11064;SDS011;5585;52.530;7.320;2023-08-08T04:21:22;3.95;;;3.22;;
11064;SDS011;5585;52.530;7.320;2023-08-08T04:23:50;3.83;;;3.13;;
11064;SDS011;5585;52.530;7.320;2023-08-08T04:26:16;6.18;;;3.40;;
11064;SDS011;5585;52.530;7.320;2023-08-08T04:28:43;4.45;;;3.35;;
11064;SDS011;5585;52.530;7.320;2023-08-08T04:31:09;8.32;;;3.92;;
11064;SDS011;5585;52.530;7.320;2023-08-08T04:33:37;4.55;;;3.17;;
11064;SDS011;5585;52.530;7.320;2023-08-08T04:36:04;5.18;;;3.40;;
11064;SDS011;5585;52.530;7.320;2023-08-08T04:38:31;5.72;;;3.83;;
11064;SDS011;5585;52.530;7.320;2023-08-08T04:40:57;5.97;;;3.30;;
11064;SDS011;5585;52.530;7.320;2023-08-08T04:43:24;6.78;;;3.30;;
11064;SDS011;5585;52.530;7.320;2023-08-08T04:45:52;6.45;;;3.33;;
11064;SDS011;5585;52.530;7.320;2023-08-08T04:48:19;4.88;;;3.40;;
11064;SDS011;5585;52.530;7.320;2023-08-08T04:50:47;6.93;;;3.60;;
11064;SDS011;5585;52.530;7.320;2023-08-08T04:53:13;6.10;;;3.13;;
11064;SDS011;5585;52.530;7.320;2023-08-08T04:55:40;6.47;;;3.53;;
11064;SDS011;5585;52.530;7.320;2023-08-08T04:58:06;4.63;;;3.17;;
11064;SDS011;5585;52.530;7.320;2023-08-08T05:00:33;6.28;;;3.55;;
11064;SDS011;5585;52.530;7.320;2023-08-08T05:03:00;4.78;;;2.97;;
11064;SDS011;5585;52.530;7.320;2023-08-08T05:05:27;6.32;;;3.63;;
11064;SDS011;5585;52.530;7.320;2023-08-08T05:07:54;4.55;;;3.25;;
11064;SDS011;5585;52.530;7.320;2023-08-08T05:10:21;8.13;;;3.38;;
11064;SDS011;5585;52.530;7.320;2023-08-08T05:12:48;6.32;;;3.35;;
11064;SDS011;5585;52.530;7.320;2023-08-08T05:15:14;4.78;;;3.08;;
11064;SDS011;5585;52.530;7.320;2023-08-08T05:17:41;7.22;;;3.10;;
11064;SDS011;5585;52.530;7.320;2023-08-08T05:20:08;5.80;;;3.33;;
11064;SDS011;5585;52.530;7.320;2023-08-08T05:22:35;5.10;;;3.13;;
11064;SDS011;5585;52.530;7.320;2023-08-08T05:25:03;3.55;;;2.90;;
11064;SDS011;5585;52.530;7.320;2023-08-08T05:27:29;6.25;;;3.40;;
11064;SDS011;5585;52.530;7.320;2023-08-08T05:29:56;6.45;;;3.25;;
11064;SDS011;5585;52.530;7.320;2023-08-08T05:32:22;7.28;;;3.42;;
11064;SDS011;5585;52.530;7.320;2023-08-08T05:34:50;6.30;;;3.00;;
11064;SDS011;5585;52.530;7.320;2023-08-08T05:37:16;4.68;;;2.95;;
11064;SDS011;5585;52.530;7.320;2023-08-08T05:39:43;5.07;;;3.03;;
11064;SDS011;5585;52.530;7.320;2023-08-08T05:42:11;5.13;;;3.08;;
11064;SDS011;5585;52.530;7.320;2023-08-08T05:44:37;6.10;;;3.28;;
11064;SDS011;5585;52.530;7.320;2023-08-08T05:47:04;8.50;;;3.50;;
11064;SDS011;5585;52.530;7.320;2023-08-08T05:49:30;7.90;;;3.05;;
11064;SDS011;5585;52.530;7.320;2023-08-08T05:51:57;6.13;;;2.80;;
11064;SDS011;5585;52.530;7.320;2023-08-08T05:54:23;5.05;;;2.65;;
11064;SDS011;5585;52.530;7.320;2023-08-08T05:56:50;6.22;;;3.33;;
11064;SDS011;5585;52.530;7.320;2023-08-08T05:59:18;6.53;;;3.00;;
11064;SDS011;5585;52.530;7.320;2023-08-08T06:01:44;6.07;;;3.08;;
11064;SDS011;5585;52.530;7.320;2023-08-08T06:04:11;9.05;;;3.97;;
11064;SDS011;5585;52.530;7.320;2023-08-08T06:06:38;6.40;;;2.83;;
11064;SDS011;5585;52.530;7.320;2023-08-08T06:09:04;5.43;;;2.90;;
11064;SDS011;5585;52.530;7.320;2023-08-08T06:11:31;4.68;;;3.17;;
11064;SDS011;5585;52.530;7.320;2023-08-08T06:13:57;7.75;;;3.28;;
11064;SDS011;5585;52.530;7.320;2023-08-08T06:16:25;7.45;;;2.88;;
11064;SDS011;5585;52.530;7.320;2023-08-08T06:18:52;3.90;;;3.00;;
11064;SDS011;5585;52.530;7.320;2023-08-08T06:21:18;5.60;;;2.60;;
11064;SDS011;5585;52.530;7.320;2023-08-08T06:23:45;3.83;;;2.60;;
11064;SDS011;5585;52.530;7.320;2023-08-08T06:26:12;5.47;;;2.97;;
11064;SDS011;5585;52.530;7.320;2023-08-08T06:28:39;5.30;;;2.83;;
11064;SDS011;5585;52.530;7.320;2023-08-08T06:31:05;6.60;;;2.85;;
11064;SDS011;5585;52.530;7.320;2023-08-08T06:33:33;6.28;;;2.70;;
11064;SDS011;5585;52.530;7.320;2023-08-08T06:36:00;3.22;;;2.20;;
11064;SDS011;5585;52.530;7.320;2023-08-08T06:38:26;5.20;;;2.60;;
11064;SDS011;5585;52.530;7.320;2023-08-08T06:40:53;4.70;;;2.83;;
11064;SDS011;5585;52.530;7.320;2023-08-08T06:43:21;5.45;;;2.08;;
11064;SDS011;5585;52.530;7.320;2023-08-08T06:45:47;4.32;;;1.98;;
11064;SDS011;5585;52.530;7.320;2023-08-08T06:48:14;5.13;;;2.17;;
11064;SDS011;5585;52.530;7.320;2023-08-08T06:50:42;4.95;;;2.22;;
11064;SDS011;5585;52.530;7.320;2023-08-08T06:53:08;4.97;;;1.75;;
11064;SDS011;5585;52.530;7.320;2023-08-08T06:55:35;6.22;;;1.52;;
11064;SDS011;5585;52.530;7.320;2023-08-08T06:58:01;6.13;;;2.00;;
11064;SDS011;5585;52.530;7.320;2023-08-08T07:00:28;6.07;;;2.05;;
11064;SDS011;5585;52.530;7.320;2023-08-08T07:02:54;3.70;;;2.13;;
11064;SDS011;5585;52.530;7.320;2023-08-08T07:05:21;4.75;;;2.15;;
11064;SDS011;5585;52.530;7.320;2023-08-08T07:07:50;3.72;;;1.52;;
11064;SDS011;5585;52.530;7.320;2023-08-08T07:10:17;4.65;;;1.83;;
11064;SDS011;5585;52.530;7.320;2023-08-08T07:12:44;3.15;;;1.52;;
11064;SDS011;5585;52.530;7.320;2023-08-08T07:15:10;3.88;;;1.20;;
11064;SDS011;5585;52.530;7.320;2023-08-08T07:17:37;3.55;;;1.38;;
11064;SDS011;5585;52.530;7.320;2023-08-08T07:20:04;4.25;;;1.42;;
11064;SDS011;5585;52.530;7.320;2023-08-08T07:22:31;4.20;;;1.38;;
11064;SDS011;5585;52.530;7.320;2023-08-08T07:24:59;3.08;;;1.20;;
11064;SDS011;5585;52.530;7.320;2023-08-08T07:27:26;4.25;;;1.20;;
11064;SDS011;5585;52.530;7.320;2023-08-08T07:29:52;4.97;;;1.50;;
11064;SDS011;5585;52.530;7.320;2023-08-08T07:32:19;4.18;;;1.10;;
11064;SDS011;5585;52.530;7.320;2023-08-08T07:34:45;3.45;;;1.20;;
11064;SDS011;5585;52.530;7.320;2023-08-08T07:37:13;4.68;;;1.30;;
11064;SDS011;5585;52.530;7.320;2023-08-08T07:39:40;3.13;;;1.30;;
11064;SDS011;5585;52.530;7.320;2023-08-08T07:42:08;4.18;;;1.40;;
11064;SDS011;5585;52.530;7.320;2023-08-08T07:44:34;4.18;;;1.33;;
11064;SDS011;5585;52.530;7.320;2023-08-08T07:47:03;2.53;;;1.00;;
11064;SDS011;5585;52.530;7.320;2023-08-08T07:49:30;3.78;;;1.50;;
11064;SDS011;5585;52.530;7.320;2023-08-08T07:51:56;4.72;;;1.40;;
11064;SDS011;5585;52.530;7.320;2023-08-08T07:54:23;4.53;;;1.35;;
11064;SDS011;5585;52.530;7.320;2023-08-08T07:56:49;5.25;;;1.33;;
11064;SDS011;5585;52.530;7.320;2023-08-08T07:59:17;1.67;;;0.80;;
11064;SDS011;5585;52.530;7.320;2023-08-08T08:01:43;4.20;;;1.15;;
11064;SDS011;5585;52.530;7.320;2023-08-08T08:04:10;1.58;;;0.82;;
11064;SDS011;5585;52.530;7.320;2023-08-08T08:06:37;2.50;;;0.80;;
11064;SDS011;5585;52.530;7.320;2023-08-08T08:09:03;2.72;;;0.90;;
11064;SDS011;5585;52.530;7.320;2023-08-08T08:11:30;1.73;;;0.85;;
11064;SDS011;5585;52.530;7.320;2023-08-08T08:13:56;1.75;;;0.85;;
11064;SDS011;5585;52.530;7.320;2023-08-08T08:16:24;2.42;;;0.90;;
11064;SDS011;5585;52.530;7.320;2023-08-08T08:18:51;3.38;;;1.10;;
11064;SDS011;5585;52.530;7.320;2023-08-08T08:21:17;3.67;;;1.20;;
11064;SDS011;5585;52.530;7.320;2023-08-08T08:23:44;3.35;;;1.20;;
11064;SDS011;5585;52.530;7.320;2023-08-08T08:26:12;2.50;;;0.93;;
11064;SDS011;5585;52.530;7.320;2023-08-08T08:28:38;3.67;;;1.30;;
11064;SDS011;5585;52.530;7.320;2023-08-08T08:31:06;1.40;;;0.77;;
11064;SDS011;5585;52.530;7.320;2023-08-08T08:33:33;1.98;;;0.77;;
11064;SDS011;5585;52.530;7.320;2023-08-08T08:36:00;1.70;;;0.65;;
11064;SDS011;5585;52.530;7.320;2023-08-08T08:38:26;3.30;;;1.00;;
11064;SDS011;5585;52.530;7.320;2023-08-08T08:40:53;3.03;;;0.90;;
11064;SDS011;5585;52.530;7.320;2023-08-08T08:43:20;4.70;;;0.93;;
11064;SDS011;5585;52.530;7.320;2023-08-08T08:45:48;2.53;;;0.80;;
11064;SDS011;5585;52.530;7.320;2023-08-08T08:48:16;4.13;;;0.90;;
11064;SDS011;5585;52.530;7.320;2023-08-08T08:50:45;2.83;;;1.20;;
11064;SDS011;5585;52.530;7.320;2023-08-08T08:53:13;2.33;;;0.98;;
11064;SDS011;5585;52.530;7.320;2023-08-08T08:55:40;3.65;;;0.98;;
11064;SDS011;5585;52.530;7.320;2023-08-08T08:58:07;3.53;;;1.20;;
11064;SDS011;5585;52.530;7.320;2023-08-08T09:00:34;2.28;;;0.88;;
11064;SDS011;5585;52.530;7.320;2023-08-08T09:03:01;3.30;;;1.50;;
11064;SDS011;5585;52.530;7.320;2023-08-08T09:05:28;3.55;;;0.95;;
11064;SDS011;5585;52.530;7.320;2023-08-08T09:07:56;2.35;;;1.00;;
11064;SDS011;5585;52.530;7.320;2023-08-08T09:10:22;1.35;;;0.70;;
11064;SDS011;5585;52.530;7.320;2023-08-08T09:12:50;3.40;;;0.70;;
11064;SDS011;5585;52.530;7.320;2023-08-08T09:15:17;1.70;;;0.70;;
11064;SDS011;5585;52.530;7.320;2023-08-08T09:17:43;1.98;;;0.60;;
11064;SDS011;5585;52.530;7.320;2023-08-08T09:20:11;2.15;;;0.70;;
11064;SDS011;5585;52.530;7.320;2023-08-08T09:22:37;2.15;;;0.60;;
11064;SDS011;5585;52.530;7.320;2023-08-08T09:25:06;1.88;;;0.90;;
11064;SDS011;5585;52.530;7.320;2023-08-08T09:27:33;2.17;;;0.80;;
11064;SDS011;5585;52.530;7.320;2023-08-08T09:29:59;4.50;;;0.93;;
11064;SDS011;5585;52.530;7.320;2023-08-08T09:32:28;4.53;;;0.80;;
11064;SDS011;5585;52.530;7.320;2023-08-08T09:34:55;3.08;;;0.77;;
11064;SDS011;5585;52.530;7.320;2023-08-08T09:37:22;3.13;;;0.73;;
11064;SDS011;5585;52.530;7.320;2023-08-08T09:39:55;2.63;;;0.70;;
11064;SDS011;5585;52.530;7.320;2023-08-08T09:42:23;1.70;;;0.73;;
11064;SDS011;5585;52.530;7.320;2023-08-08T09:44:50;2.10;;;0.93;;
11064;SDS011;5585;52.530;7.320;2023-08-08T09:47:16;1.88;;;0.60;;
11064;SDS011;5585;52.530;7.320;2023-08-08T09:49:43;2.33;;;0.60;;
11064;SDS011;5585;52.530;7.320;2023-08-08T09:52:11;0.90;;;0.50;;
11064;SDS011;5585;52.530;7.320;2023-08-08T09:54:38;3.05;;;0.82;;
11064;SDS011;5585;52.530;7.320;2023-08-08T09:57:05;3.47;;;0.95;;
11064;SDS011;5585;52.530;7.320;2023-08-08T09:59:33;1.50;;;0.50;;
11064;SDS011;5585;52.530;7.320;2023-08-08T10:02:01;1.55;;;1.13;;
11064;SDS011;5585;52.530;7.320;2023-08-08T10:04:27;2.60;;;1.00;;
11064;SDS011;5585;52.530;7.320;2023-08-08T10:06:54;5.68;;;0.90;;
11064;SDS011;5585;52.530;7.320;2023-08-08T10:09:21;1.73;;;0.60;;
11064;SDS011;5585;52.530;7.320;2023-08-08T10:11:47;3.33;;;0.85;;
11064;SDS011;5585;52.530;7.320;2023-08-08T10:14:14;1.38;;;0.50;;
11064;SDS011;5585;52.530;7.320;2023-08-08T10:16:43;2.17;;;0.60;;
11064;SDS011;5585;52.530;7.320;2023-08-08T10:19:10;1.70;;;0.70;;
11064;SDS011;5585;52.530;7.320;2023-08-08T10:21:37;2.90;;;0.60;;
11064;SDS011;5585;52.530;7.320;2023-08-08T10:24:04;2.67;;;0.50;;
11064;SDS011;5585;52.530;7.320;2023-08-08T10:26:31;2.25;;;0.80;;
11064;SDS011;5585;52.530;7.320;2023-08-08T10:28:58;3.75;;;0.85;;
11064;SDS011;5585;52.530;7.320;2023-08-08T10:31:25;1.52;;;0.50;;
11064;SDS011;5585;52.530;7.320;2023-08-08T10:34:02;1.95;;;0.70;;
11064;SDS011;5585;52.530;7.320;2023-08-08T10:36:42;3.08;;;0.70;;
11064;SDS011;5585;52.530;7.320;2023-08-08T10:39:10;1.77;;;0.60;;
11064;SDS011;5585;52.530;7.320;2023-08-08T10:41:43;2.10;;;0.50;;
11064;SDS011;5585;52.530;7.320;2023-08-08T10:44:10;1.92;;;0.88;;
11064;SDS011;5585;52.530;7.320;2023-08-08T10:46:39;1.50;;;0.70;;
11064;SDS011;5585;52.530;7.320;2023-08-08T10:49:07;1.80;;;0.68;;
11064;SDS011;5585;52.530;7.320;2023-08-08T10:51:35;2.20;;;0.70;;
11064;SDS011;5585;52.530;7.320;2023-08-08T10:54:03;1.05;;;0.50;;
11064;SDS011;5585;52.530;7.320;2023-08-08T10:56:30;1.55;;;0.50;;
11064;SDS011;5585;52.530;7.320;2023-08-08T10:58:56;4.65;;;0.70;;
11064;SDS011;5585;52.530;7.320;2023-08-08T11:01:24;2.70;;;0.70;;
11064;SDS011;5585;52.530;7.320;2023-08-08T11:03:51;4.20;;;0.95;;
11064;SDS011;5585;52.530;7.320;2023-08-08T11:06:20;1.50;;;0.60;;
11064;SDS011;5585;52.530;7.320;2023-08-08T11:08:48;2.40;;;0.90;;
11064;SDS011;5585;52.530;7.320;2023-08-08T11:11:16;1.83;;;0.70;;
11064;SDS011;5585;52.530;7.320;2023-08-08T11:13:42;1.40;;;0.70;;
11064;SDS011;5585;52.530;7.320;2023-08-08T11:16:09;2.75;;;0.98;;
11064;SDS011;5585;52.530;7.320;2023-08-08T11:18:38;1.27;;;0.60;;
11064;SDS011;5585;52.530;7.320;2023-08-08T11:21:09;2.45;;;0.60;;
11064;SDS011;5585;52.530;7.320;2023-08-08T11:23:37;3.55;;;0.70;;
11064;SDS011;5585;52.530;7.320;2023-08-08T11:26:04;3.13;;;0.70;;
11064;SDS011;5585;52.530;7.320;2023-08-08T11:28:30;3.95;;;1.13;;
11064;SDS011;5585;52.530;7.320;2023-08-08T11:30:57;1.35;;;0.80;;
11064;SDS011;5585;52.530;7.320;2023-08-08T11:33:24;3.85;;;1.00;;
11064;SDS011;5585;52.530;7.320;2023-08-08T11:35:51;4.30;;;0.70;;
11064;SDS011;5585;52.530;7.320;2023-08-08T11:38:18;2.42;;;0.60;;
11064;SDS011;5585;52.530;7.320;2023-08-08T11:40:46;1.40;;;0.52;;
11064;SDS011;5585;52.530;7.320;2023-08-08T11:43:13;1.48;;;0.60;;
11064;SDS011;5585;52.530;7.320;2023-08-08T11:45:39;1.85;;;0.77;;
11064;SDS011;5585;52.530;7.320;2023-08-08T11:48:07;4.40;;;0.80;;
11064;SDS011;5585;52.530;7.320;2023-08-08T11:50:36;0.90;;;0.45;;
11064;SDS011;5585;52.530;7.320;2023-08-08T11:53:07;1.42;;;0.60;;
11064;SDS011;5585;52.530;7.320;2023-08-08T11:55:34;1.10;;;0.60;;
11064;SDS011;5585;52.530;7.320;2023-08-08T11:58:03;2.50;;;0.60;;
11064;SDS011;5585;52.530;7.320;2023-08-08T12:00:30;0.90;;;0.50;;
11064;SDS011;5585;52.530;7.320;2023-08-08T12:02:57;1.25;;;0.70;;
11064;SDS011;5585;52.530;7.320;2023-08-08T12:05:24;1.75;;;0.52;;
11064;SDS011;5585;52.530;7.320;2023-08-08T12:07:51;2.15;;;0.70;;
11064;SDS011;5585;52.530;7.320;2023-08-08T12:10:18;3.65;;;0.70;;
11064;SDS011;5585;52.530;7.320;2023-08-08T12:12:45;5.03;;;1.25;;
11064;SDS011;5585;52.530;7.320;2023-08-08T12:15:13;2.22;;;0.77;;
11064;SDS011;5585;52.530;7.320;2023-08-08T12:17:42;2.50;;;0.70;;
11064;SDS011;5585;52.530;7.320;2023-08-08T12:20:08;2.92;;;0.80;;
11064;SDS011;5585;52.530;7.320;2023-08-08T12:22:35;2.63;;;0.77;;
11064;SDS011;5585;52.530;7.320;2023-08-08T12:25:02;2.17;;;0.80;;
11064;SDS011;5585;52.530;7.320;2023-08-08T12:27:29;0.70;;;0.50;;
11064;SDS011;5585;52.530;7.320;2023-08-08T12:29:56;2.90;;;0.90;;
11064;SDS011;5585;52.530;7.320;2023-08-08T12:32:25;3.40;;;0.90;;
11064;SDS011;5585;52.530;7.320;2023-08-08T12:34:53;1.52;;;1.00;;
11064;SDS011;5585;52.530;7.320;2023-08-08T12:37:20;1.92;;;0.73;;
11064;SDS011;5585;52.530;7.320;2023-08-08T12:39:46;1.65;;;0.80;;
11064;SDS011;5585;52.530;7.320;2023-08-08T12:42:13;1.02;;;0.60;;
11064;SDS011;5585;52.530;7.320;2023-08-08T12:44:39;2.30;;;0.80;;
11064;SDS011;5585;52.530;7.320;2023-08-08T12:47:06;2.08;;;0.95;;
11064;SDS011;5585;52.530;7.320;2023-08-08T12:49:33;2.25;;;0.80;;
11064;SDS011;5585;52.530;7.320;2023-08-08T12:52:00;2.58;;;0.77;;
11064;SDS011;5585;52.530;7.320;2023-08-08T12:54:26;2.60;;;0.90;;
11064;SDS011;5585;52.530;7.320;2023-08-08T12:56:53;1.88;;;0.80;;
11064;SDS011;5585;52.530;7.320;2023-08-08T12:59:19;1.95;;;0.82;;
11064;SDS011;5585;52.530;7.320;2023-08-08T13:01:46;2.08;;;0.77;;
11064;SDS011;5585;52.530;7.320;2023-08-08T13:04:13;2.05;;;1.00;;
11064;SDS011;5585;52.530;7.320;2023-08-08T13:06:41;2.88;;;1.10;;
11064;SDS011;5585;52.530;7.320;2023-08-08T13:09:07;2.40;;;1.00;;
11064;SDS011;5585;52.530;7.320;2023-08-08T13:11:34;1.85;;;0.75;;
11064;SDS011;5585;52.530;7.320;2023-08-08T13:14:00;3.58;;;1.25;;
11064;SDS011;5585;52.530;7.320;2023-08-08T13:16:27;0.82;;;0.70;;
11064;SDS011;5585;52.530;7.320;2023-08-08T13:18:53;3.45;;;1.15;;
11064;SDS011;5585;52.530;7.320;2023-08-08T13:21:20;2.50;;;0.90;;
11064;SDS011;5585;52.530;7.320;2023-08-08T13:23:48;2.90;;;1.00;;
11064;SDS011;5585;52.530;7.320;2023-08-08T13:26:14;1.67;;;0.80;;
11064;SDS011;5585;52.530;7.320;2023-08-08T13:28:41;1.70;;;1.00;;
11064;SDS011;5585;52.530;7.320;2023-08-08T13:31:08;2.63;;;0.80;;
11064;SDS011;5585;52.530;7.320;2023-08-08T13:33:35;1.40;;;0.77;;
11064;SDS011;5585;52.530;7.320;2023-08-08T13:36:01;2.95;;;0.90;;
11064;SDS011;5585;52.530;7.320;2023-08-08T13:38:28;2.65;;;1.58;;
11064;SDS011;5585;52.530;7.320;2023-08-08T13:40:56;4.85;;;1.80;;
11064;SDS011;5585;52.530;7.320;2023-08-08T13:43:22;3.33;;;1.35;;
11064;SDS011;5585;52.530;7.320;2023-08-08T13:45:49;1.83;;;0.98;;
11064;SDS011;5585;52.530;7.320;2023-08-08T13:48:15;2.95;;;1.08;;
11064;SDS011;5585;52.530;7.320;2023-08-08T13:50:42;2.05;;;0.88;;
11064;SDS011;5585;52.530;7.320;2023-08-08T13:53:08;1.48;;;0.80;;
11064;SDS011;5585;52.530;7.320;2023-08-08T13:55:35;1.10;;;0.70;;
11064;SDS011;5585;52.530;7.320;2023-08-08T13:58:08;1.75;;;0.80;;
11064;SDS011;5585;52.530;7.320;2023-08-08T14:00:34;1.60;;;0.75;;
11064;SDS011;5585;52.530;7.320;2023-08-08T14:03:01;1.58;;;0.80;;
11064;SDS011;5585;52.530;7.320;2023-08-08T14:05:27;1.88;;;0.70;;
11064;SDS011;5585;52.530;7.320;2023-08-08T14:07:55;1.15;;;0.82;;
11064;SDS011;5585;52.530;7.320;2023-08-08T14:10:22;2.28;;;0.95;;
11064;SDS011;5585;52.530;7.320;2023-08-08T14:12:48;1.70;;;1.00;;
11064;SDS011;5585;52.530;7.320;2023-08-08T14:15:16;1.50;;;1.00;;
11064;SDS011;5585;52.530;7.320;2023-08-08T14:17:43;2.33;;;1.02;;
11064;SDS011;5585;52.530;7.320;2023-08-08T14:20:10;3.15;;;1.05;;
11064;SDS011;5585;52.530;7.320;2023-08-08T14:22:36;1.88;;;0.80;;
11064;SDS011;5585;52.530;7.320;2023-08-08T14:25:03;1.80;;;1.00;;
11064;SDS011;5585;52.530;7.320;2023-08-08T14:27:31;2.72;;;0.88;;
11064;SDS011;5585;52.530;7.320;2023-08-08T14:29:57;2.78;;;1.05;;
11064;SDS011;5585;52.530;7.320;2023-08-08T14:32:25;4.47;;;1.08;;
11064;SDS011;5585;52.530;7.320;2023-08-08T14:34:52;1.52;;;0.88;;
11064;SDS011;5585;52.530;7.320;2023-08-08T14:37:18;1.58;;;0.80;;
11064;SDS011;5585;52.530;7.320;2023-08-08T14:39:45;1.33;;;0.80;;
11064;SDS011;5585;52.530;7.320;2023-08-08T14:42:11;1.05;;;0.70;;
11064;SDS011;5585;52.530;7.320;2023-08-08T14:44:38;2.08;;;1.00;;
11064;SDS011;5585;52.530;7.320;2023-08-08T14:47:05;0.90;;;0.70;;
11064;SDS011;5585;52.530;7.320;2023-08-08T14:49:33;2.05;;;0.70;;
11064;SDS011;5585;52.530;7.320;2023-08-08T14:52:02;4.00;;;0.73;;
11064;SDS011;5585;52.530;7.320;2023-08-08T14:54:29;2.67;;;0.90;;
11064;SDS011;5585;52.530;7.320;2023-08-08T14:56:55;3.20;;;0.90;;
11064;SDS011;5585;52.530;7.320;2023-08-08T14:59:23;3.65;;;0.98;;